PWSweather.com
Personal Weather Stations
Station Observations
WAREHAM1
West Wareham, MA 02576

West Wareham, MA 02576

Lat: 41.7961059, Lon: -70.775612

Elevation: 88

Station Type: Davis Vantage Vue

http://www.gateway2capecod.com

Latest ConditionsUpdated 5:59:52 AM EST Tuesday, Mar 3, 2015
Currently Today's Max Today's Min Today's Average
Temperature 14.0°F-10.0°C 24.4°F-4.2°C 14.0°F-10.0°C 19.9°F-6.7°C
Dew Point 7.9°F-13.4°C 13.3°F-10.4°C 7.9°F-13.4°C 10.9°F-11.7°C
Winds Calm Calm 0.9 mph WNW1.4 kmh WNW - 0.1 mph 0.2 kmh
Wind Gusts -- 6.0 mph9.7 kmh - -
Humidity 76% 76% 61% 68%
Pressure 30.39 in1029.1 mb 30.39 in1029.1 mb 30.27 in1025.1 mb -
Hour Temp Dew Point Humidity Winds Wind Gusts Pressure Precip Precip Rate Daily Precip Total
05:59 AM 14.0°F-10.0°C 7.9°F-13.4°C 76% Calm Calm -- 30.39 in1029.1 mb 0.00 in0.0 mm 0.00 in/hr0.0 mm/hr 0.00 in0.0 mm
05:49 AM 14.4°F-9.8°C 8.2°F-13.2°C 76% Calm Calm -- 30.39 in1029.1 mb 0.00 in0.0 mm 0.00 in/hr0.0 mm/hr 0.00 in0.0 mm
05:39 AM 14.7°F-9.6°C 8.2°F-13.2°C 75% Calm Calm -- 30.39 in1029.1 mb 0.00 in0.0 mm 0.00 in/hr0.0 mm/hr 0.00 in0.0 mm
05:29 AM 15.1°F-9.4°C 8.2°F-13.2°C 74% Calm Calm -- 30.38 in1028.8 mb 0.00 in0.0 mm 0.00 in/hr0.0 mm/hr 0.00 in0.0 mm
05:19 AM 15.1°F-9.4°C 8.2°F-13.2°C 74% Calm Calm 1.0 mph1.6 kmh 30.37 in1028.4 mb 0.00 in0.0 mm 0.00 in/hr0.0 mm/hr 0.00 in0.0 mm
05:09 AM 15.3°F-9.3°C 7.9°F-13.4°C 72% Calm Calm -- 30.38 in1028.8 mb 0.00 in0.0 mm 0.00 in/hr0.0 mm/hr 0.00 in0.0 mm
04:59 AM 16.3°F-8.7°C 8.6°F-13.0°C 71% Calm Calm -- 30.38 in1028.8 mb 0.00 in0.0 mm 0.00 in/hr0.0 mm/hr 0.00 in0.0 mm
04:49 AM 16.5°F-8.6°C 9.1°F-12.7°C 72% Calm Calm 0.9 mph1.4 kmh 30.37 in1028.4 mb 0.00 in0.0 mm 0.00 in/hr0.0 mm/hr 0.00 in0.0 mm
04:39 AM 16.3°F-8.7°C 8.6°F-13.0°C 71% Calm Calm -- 30.37 in1028.4 mb 0.00 in0.0 mm 0.00 in/hr0.0 mm/hr 0.00 in0.0 mm
04:29 AM 17.2°F-8.2°C 8.8°F-12.9°C 69% Calm Calm -- 30.37 in1028.4 mb 0.00 in0.0 mm 0.00 in/hr0.0 mm/hr 0.00 in0.0 mm
04:19 AM 17.8°F-7.9°C 9.3°F-12.6°C 69% Calm Calm -- 30.36 in1028.1 mb 0.00 in0.0 mm 0.00 in/hr0.0 mm/hr 0.00 in0.0 mm
04:09 AM 18.1°F-7.7°C 9.0°F-12.8°C 67% Calm Calm 2.0 mph3.2 kmh 30.35 in1027.8 mb 0.00 in0.0 mm 0.00 in/hr0.0 mm/hr 0.00 in0.0 mm
03:59 AM 19.2°F-7.1°C 9.3°F-12.6°C 65% Calm Calm 2.0 mph3.2 kmh 30.35 in1027.8 mb 0.00 in0.0 mm 0.00 in/hr0.0 mm/hr 0.00 in0.0 mm
03:49 AM 19.2°F-7.1°C 10.0°F-12.2°C 67% 0.9 mph WNW1.4 kmh WNW 2.0 mph3.2 kmh 30.34 in1027.4 mb 0.00 in0.0 mm 0.00 in/hr0.0 mm/hr 0.00 in0.0 mm
03:39 AM 19.2°F-7.1°C 10.8°F-11.8°C 69% Calm Calm 0.9 mph1.4 kmh 30.34 in1027.4 mb 0.00 in0.0 mm 0.00 in/hr0.0 mm/hr 0.00 in0.0 mm
03:29 AM 18.9°F-7.3°C 11.3°F-11.5°C 72% Calm Calm 2.0 mph3.2 kmh 30.34 in1027.4 mb 0.00 in0.0 mm 0.00 in/hr0.0 mm/hr 0.00 in0.0 mm
03:19 AM 18.3°F-7.6°C 11.1°F-11.6°C 73% Calm Calm -- 30.33 in1027.1 mb 0.00 in0.0 mm 0.00 in/hr0.0 mm/hr 0.00 in0.0 mm
03:09 AM 18.7°F-7.4°C 10.8°F-11.8°C 71% Calm Calm -- 30.33 in1027.1 mb 0.00 in0.0 mm 0.00 in/hr0.0 mm/hr 0.00 in0.0 mm
02:59 AM 19.2°F-7.1°C 11.3°F-11.5°C 71% Calm Calm 0.9 mph1.4 kmh 30.33 in1027.1 mb 0.00 in0.0 mm 0.00 in/hr0.0 mm/hr 0.00 in0.0 mm
02:49 AM 19.9°F-6.7°C 11.7°F-11.3°C 70% Calm Calm 0.9 mph1.4 kmh 30.32 in1026.8 mb 0.00 in0.0 mm 0.00 in/hr0.0 mm/hr 0.00 in0.0 mm
02:39 AM 20.7°F-6.3°C 12.0°F-11.1°C 69% Calm Calm -- 30.32 in1026.8 mb 0.00 in0.0 mm 0.00 in/hr0.0 mm/hr 0.00 in0.0 mm
02:29 AM 21.7°F-5.7°C 12.2°F-11.0°C 66% Calm Calm -- 30.32 in1026.8 mb 0.00 in0.0 mm 0.00 in/hr0.0 mm/hr 0.00 in0.0 mm
02:19 AM 22.5°F-5.3°C 12.7°F-10.7°C 66% Calm Calm 2.9 mph4.7 kmh 30.32 in1026.8 mb 0.00 in0.0 mm 0.00 in/hr0.0 mm/hr 0.00 in0.0 mm
02:09 AM 22.5°F-5.3°C 11.8°F-11.2°C 63% 0.9 mph WNW1.4 kmh WNW 4.0 mph6.4 kmh 30.32 in1026.8 mb 0.00 in0.0 mm 0.00 in/hr0.0 mm/hr 0.00 in0.0 mm
01:59 AM 22.5°F-5.3°C 12.2°F-11.0°C 64% Calm Calm 2.0 mph3.2 kmh 30.32 in1026.8 mb 0.00 in0.0 mm 0.00 in/hr0.0 mm/hr 0.00 in0.0 mm
01:49 AM 23.0°F-5.0°C 13.3°F-10.4°C 66% Calm Calm 3.0 mph4.8 kmh 30.32 in1026.8 mb 0.00 in0.0 mm 0.00 in/hr0.0 mm/hr 0.00 in0.0 mm
01:39 AM 23.2°F-4.9°C 12.7°F-10.7°C 64% Calm Calm 2.9 mph4.7 kmh 30.32 in1026.8 mb 0.00 in0.0 mm 0.00 in/hr0.0 mm/hr 0.00 in0.0 mm
01:29 AM 23.0°F-5.0°C 12.9°F-10.6°C 65% Calm Calm 4.9 mph7.9 kmh 30.31 in1026.4 mb 0.00 in0.0 mm 0.00 in/hr0.0 mm/hr 0.00 in0.0 mm
01:19 AM 23.2°F-4.9°C 12.7°F-10.7°C 64% Calm Calm 2.0 mph3.2 kmh 30.31 in1026.4 mb 0.00 in0.0 mm 0.00 in/hr0.0 mm/hr 0.00 in0.0 mm
01:09 AM 24.1°F-4.4°C 12.6°F-10.8°C 61% Calm Calm 0.9 mph1.4 kmh 30.31 in1026.4 mb 0.00 in0.0 mm 0.00 in/hr0.0 mm/hr 0.00 in0.0 mm
12:59 AM 24.4°F-4.2°C 12.9°F-10.6°C 61% Calm Calm 4.0 mph6.4 kmh 30.30 in1026.1 mb 0.00 in0.0 mm 0.00 in/hr0.0 mm/hr 0.00 in0.0 mm
12:49 AM 24.3°F-4.3°C 13.1°F-10.5°C 62% 0.9 mph WSW1.4 kmh WSW 6.0 mph9.7 kmh 30.29 in1025.7 mb 0.00 in0.0 mm 0.00 in/hr0.0 mm/hr 0.00 in0.0 mm
12:39 AM 24.1°F-4.4°C 12.9°F-10.6°C 62% Calm Calm 2.0 mph3.2 kmh 30.28 in1025.4 mb 0.00 in0.0 mm 0.00 in/hr0.0 mm/hr 0.00 in0.0 mm
12:29 AM 24.3°F-4.3°C 13.1°F-10.5°C 62% 0.9 mph W1.4 kmh W 4.0 mph6.4 kmh 30.29 in1025.7 mb 0.00 in0.0 mm 0.00 in/hr0.0 mm/hr 0.00 in0.0 mm
12:19 AM 23.9°F-4.5°C 13.1°F-10.5°C 63% Calm Calm 4.0 mph6.4 kmh 30.27 in1025.1 mb 0.00 in0.0 mm 0.00 in/hr0.0 mm/hr 0.00 in0.0 mm
12:09 AM 24.3°F-4.3°C 13.1°F-10.5°C 62% Calm Calm 2.0 mph3.2 kmh 30.27 in1025.1 mb 0.00 in0.0 mm 0.00 in/hr0.0 mm/hr 0.00 in0.0 mm